Oak Park, Minnesota
Current Conditions -  °F | °C
As of 8:34 AM on Friday 31 Oct 2014 (Local Time) from KPNM Reporting Station
Clear Clear  
Wind Chill: 19°   Ceiling: Unl
Heat Index: 27°   Visibility: 10mi
Dew Point: 18°   Wind: 7mph
Humidity: 69%   Direction: 350°N
Pressure: 30.55"   Gusts: NA
Location:  45.7°N, 93.82°W
Report Text: KPNM 311334Z AUTO 35006KT 10SM CLR M03/M08 A3055 RMK AO2
Loading
Personal Weather Stations






























Interactive Weather Map
Tropical Storm Tracking
New forecast layout! Learn more

10-Day Weather Forecast

Advertisements
Track Severe Weather on mobile